KTVF/TVF METAR and TAF weather

Enter ICAO airport designator
Station Type Date Time Source
KTVF METAR 2020/09/27 15:25 UTC NOAA

KTVF 271525Z AUTO 31010KT 10SM -RA BKN014 OVC040 12/10 A2959 RMK AO2 RAB07 P0000


Station Type Date Time Source
KTVF Decoded METAR 2020/09/27 15:25 UTC NOAA

Thief River Falls, Thief River Falls Regional Airport, MN, United States (KTVF) 48-04N 096-11W
Sep 27, 2020 - 11:25 AM EDT / 2020.09.27 1525 UTC
Wind: from the NW (310 degrees) at 12 MPH (10 KT):0
Visibility: 10 mile(s):0
Sky conditions: overcast
Weather: light rain
Precipitation last hour: A trace
Temperature: 53 F (12 C)
Dew Point: 50 F (10 C)
Relative Humidity: 87%
Pressure (altimeter): 29.59 in. Hg (1002 hPa)
ob: KTVF 271525Z AUTO 31010KT 10SM -RA BKN014 OVC040 12/10 A2959 RMK AO2 RAB07 P0000
cycle: 15

Station Type Date Time Source
KTVF TAF 2020/09/27 12:42 UTC NOAA

TAF KTVF 271141Z 2712/2812 24010KT P6SM BKN040
FM271400 29013KT P6SM VCSH BKN024
FM271600 30016KT P6SM BKN035
FM272000 31019G27KT P6SM VCSH BKN040
FM280300 31011KT P6SM BKN040

Example: see airport list